Hh East — V4EF3 — position and weather

sailwx.info

Track history (hours):
 
Tides and Currents Weather Stations Pressure Air Temp Water Temp Dewpoint Dewpoint Depression Visibility Wind Speed Wind Dir Waves Ship Positions

Hh East

Last reported at 2018-Feb-16 05:09 UTC. Time now 2018-Feb-20 02:08 UTC.
Position N 38°00' E 005°25'.

Length 127 m; draft 8.1 m.

Type: Cargo ship. MMSI: 341771000.

Date/timePositionNaut miles runAvg speedWind from/ knotsBaromVisibWave heightAir tempDewpointWater temp
2018-Feb-16 05:09N 38°00' E 005°25'1010.1
2018-Feb-16 04:09N 38°07' E 005°35'1810.0
2018-Feb-16 02:23N 38°16' E 005°54'510.1
2018-Feb-16 01:55N 38°18' E 005°60'326 9.0
2018-Feb-14 13:50N 43°14' E 009°02'3 9.4
2018-Feb-14 13:30N 43°16' E 009°04'5 9.5
2018-Feb-14 13:00N 43°20' E 009°08'33 9.6
2018-Feb-14 09:32N 43°48' E 009°34'010.5
2018-Feb-14 09:30N 43°48' E 009°34'510.6
2018-Feb-14 09:00N 43°52' E 009°39'510.6
2018-Feb-14 08:30N 43°55' E 009°44'510.5
2018-Feb-14 08:00N 43°59' E 009°50'5 9.6
2018-Feb-14 07:30N 44°03' E 009°52'3 5.3
2018-Feb-14 06:58N 44°06' E 009°51'0 0.0
2018-Feb-14 06:28N 44°06' E 009°51'0 0.0
2018-Feb-14 05:58N 44°06' E 009°51'0 0.0
2018-Feb-14 05:28N 44°06' E 009°51'0 0.0
2018-Feb-14 04:58N 44°06' E 009°51'0 0.0
2018-Feb-14 04:28N 44°06' E 009°51'0 0.0
2018-Feb-14 03:58N 44°06' E 009°51'0 0.0
2018-Feb-14 03:28N 44°06' E 009°51'0 0.0
2018-Feb-14 02:58N 44°06' E 009°51'0 0.0
2018-Feb-14 02:28N 44°06' E 009°51'0 0.0
2018-Feb-14 01:58N 44°06' E 009°51'0 0.0
2018-Feb-14 01:28N 44°06' E 009°51'0 0.0
2018-Feb-14 00:58N 44°06' E 009°51'0 0.0
2018-Feb-14 00:28N 44°06' E 009°51'0 0.0
2018-Feb-13 23:58N 44°06' E 009°51'0 0.0
2018-Feb-13 23:28N 44°06' E 009°51'0 0.0
2018-Feb-13 22:58N 44°06' E 009°51'0 0.0
2018-Feb-13 22:28N 44°06' E 009°51'0 0.0
2018-Feb-13 21:58N 44°06' E 009°51'0 0.0
2018-Feb-13 21:28N 44°06' E 009°51'0 0.0
2018-Feb-13 20:58N 44°06' E 009°51'0 0.0
2018-Feb-13 20:28N 44°06' E 009°51'0 0.0
2018-Feb-13 19:55N 44°06' E 009°51'0 0.0
2018-Feb-13 19:28N 44°06' E 009°51'0 0.0
2018-Feb-13 18:58N 44°06' E 009°51'0 0.0
2018-Feb-13 18:28N 44°06' E 009°51'0 0.0
2018-Feb-13 17:58N 44°06' E 009°51'0 0.0
2018-Feb-13 17:28N 44°06' E 009°51'0 0.0
2018-Feb-13 16:58N 44°06' E 009°51'0 0.0
2018-Feb-13 16:28N 44°06' E 009°51'0 0.0
2018-Feb-13 15:58N 44°06' E 009°51'0 0.0
2018-Feb-13 15:28N 44°06' E 009°51'0 0.0
2018-Feb-13 14:58N 44°06' E 009°51'0 0.0
2018-Feb-13 14:28N 44°06' E 009°51'0 0.0
2018-Feb-13 13:58N 44°06' E 009°51'0 0.1
2018-Feb-13 13:30N 44°06' E 009°51'3 5.4
2018-Feb-13 13:01N 44°04' E 009°51'5 9.7
2018-Feb-13 12:30N 44°00' E 009°57'4 8.3
2018-Feb-13 12:00N 43°58' E 009°51'610.0
2018-Feb-13 11:26N 43°57' E 009°44'410.2
2018-Feb-13 11:01N 43°58' E 009°38'510.5
2018-Feb-13 10:30N 44°01' E 009°32'510.1
2018-Feb-13 10:00N 44°04' E 009°26'5 9.9
2018-Feb-13 09:30N 44°07' E 009°21'510.1
2018-Feb-13 09:01N 44°10' E 009°15'5 9.8
2018-Feb-13 08:31N 44°14' E 009°10'5 9.6
2018-Feb-13 08:01N 44°16' E 009°05'5 9.6
2018-Feb-13 07:30N 44°19' E 008°59'5 9.1
2018-Feb-13 07:00N 44°23' E 008°56'3 5.3
2018-Feb-13 06:30N 44°24' E 008°53'0 0.0
2018-Feb-13 05:57N 44°24' E 008°53'0 0.0
2018-Feb-13 05:30N 44°24' E 008°53'0 0.0
2018-Feb-13 05:00N 44°24' E 008°53'0 0.0
2018-Feb-13 04:30N 44°24' E 008°53'0 0.0
2018-Feb-13 04:00N 44°24' E 008°53'0 0.0
2018-Feb-13 03:30N 44°24' E 008°53'0 0.0
2018-Feb-13 03:00N 44°24' E 008°53'0 0.0
2018-Feb-13 02:30N 44°24' E 008°53'0 0.0
2018-Feb-13 02:00N 44°24' E 008°53'0 0.0
2018-Feb-13 01:30N 44°24' E 008°53'0 0.0
2018-Feb-13 01:00N 44°24' E 008°53'0 0.0
2018-Feb-13 00:30N 44°24' E 008°53'0 0.0
2018-Feb-13 00:00N 44°24' E 008°53'0 0.0
2018-Feb-12 23:30N 44°24' E 008°53'0 0.0
2018-Feb-12 23:00N 44°24' E 008°53'0 0.0
2018-Feb-12 22:30N 44°24' E 008°53'0 0.0
2018-Feb-12 22:00N 44°24' E 008°53'0 0.0
2018-Feb-12 21:30N 44°24' E 008°53'0 0.0
2018-Feb-12 21:00N 44°24' E 008°53'0 0.0
2018-Feb-12 20:30N 44°24' E 008°53'0 0.0
2018-Feb-12 20:00N 44°24' E 008°53'0 0.0
2018-Feb-12 19:30N 44°24' E 008°53'0 0.0
2018-Feb-12 19:00N 44°24' E 008°53'0 0.0
2018-Feb-12 18:30N 44°24' E 008°53'0 0.0
2018-Feb-12 18:00N 44°24' E 008°53'0 0.0
2018-Feb-12 17:30N 44°24' E 008°53'0 0.0
2018-Feb-12 17:00N 44°24' E 008°53'0 0.0
2018-Feb-12 16:30N 44°24' E 008°53'0 0.0
2018-Feb-12 15:57N 44°24' E 008°53'0 0.0
2018-Feb-12 15:30N 44°24' E 008°53'0 0.0
2018-Feb-12 15:00N 44°24' E 008°53'0 0.0
2018-Feb-12 14:30N 44°24' E 008°53'0 0.0
2018-Feb-12 14:00N 44°24' E 008°53'0 0.0
2018-Feb-12 13:30N 44°24' E 008°53'0 0.0
2018-Feb-12 13:00N 44°24' E 008°53'0 0.0
2018-Feb-12 12:30N 44°24' E 008°53'0 0.0
2018-Feb-12 12:00N 44°24' E 008°53'0 0.0
2018-Feb-12 11:30N 44°24' E 008°53'0 0.0
2018-Feb-12 11:00N 44°24' E 008°53'0 0.0
2018-Feb-12 10:30N 44°24' E 008°53'0 0.0
2018-Feb-12 10:00N 44°24' E 008°53'0 0.0
2018-Feb-12 09:30N 44°24' E 008°53'0 0.0
2018-Feb-12 09:00N 44°24' E 008°53'0 0.0
2018-Feb-12 08:30N 44°24' E 008°53'0 0.0
2018-Feb-12 08:00N 44°24' E 008°53'0 0.0
2018-Feb-12 07:30N 44°24' E 008°53'0 0.0
2018-Feb-12 07:00N 44°24' E 008°53'0 0.0
2018-Feb-12 06:30N 44°24' E 008°53'0 0.0
2018-Feb-12 06:00N 44°24' E 008°53'0 0.0
2018-Feb-12 05:30N 44°24' E 008°53'0 0.0
2018-Feb-12 05:00N 44°24' E 008°53'0 0.0
2018-Feb-12 04:30N 44°24' E 008°53'0 0.0
2018-Feb-12 04:00N 44°24' E 008°53'0 0.0
2018-Feb-12 03:30N 44°24' E 008°53'0 0.0
2018-Feb-12 03:00N 44°24' E 008°53'0 0.0
2018-Feb-12 02:30N 44°24' E 008°53'0 0.0
2018-Feb-12 02:00N 44°24' E 008°53'0 0.0
2018-Feb-12 01:30N 44°24' E 008°53'0 0.0
2018-Feb-12 01:00N 44°24' E 008°53'0 0.0
2018-Feb-12 00:30N 44°24' E 008°53'0 0.0
2018-Feb-12 00:00N 44°24' E 008°53'0 0.0
2018-Feb-11 23:30N 44°24' E 008°53'0 0.0
2018-Feb-11 23:00N 44°24' E 008°53'0 0.0
2018-Feb-11 22:30N 44°24' E 008°53'0 0.0
2018-Feb-11 22:00N 44°24' E 008°53'0 0.0
2018-Feb-11 21:30N 44°24' E 008°53'0 0.0
2018-Feb-11 21:00N 44°24' E 008°53'0 0.0
2018-Feb-11 20:30N 44°24' E 008°53'0 0.0
2018-Feb-11 20:00N 44°24' E 008°53'0 0.0
2018-Feb-11 19:30N 44°24' E 008°53'0 0.0
2018-Feb-11 19:00N 44°24' E 008°53'0 0.0
2018-Feb-11 18:30N 44°24' E 008°53'0 0.0
2018-Feb-11 18:00N 44°24' E 008°53'0 0.0
2018-Feb-11 17:27N 44°24' E 008°53'0 0.0
2018-Feb-11 17:00N 44°24' E 008°53'0 0.0
2018-Feb-11 16:30N 44°24' E 008°53'0 0.0
2018-Feb-11 16:00N 44°24' E 008°53'0 0.0
2018-Feb-11 15:27N 44°24' E 008°53'0 0.0
2018-Feb-11 15:00N 44°24' E 008°53'0 0.0
2018-Feb-11 14:30N 44°24' E 008°53'0 0.0
2018-Feb-11 14:00N 44°24' E 008°53'0 0.0
2018-Feb-11 13:30N 44°24' E 008°53'0 0.0
2018-Feb-11 13:00N 44°24' E 008°53'0 0.0
2018-Feb-11 12:30N 44°24' E 008°53'0 0.0
2018-Feb-11 12:00N 44°24' E 008°53'0 0.0
2018-Feb-11 11:27N 44°24' E 008°53'0 1.1
2018-Feb-11 11:00N 44°24' E 008°53'3 6.1
2018-Feb-11 10:30N 44°23' E 008°57'3 6.9
2018-Feb-11 10:00N 44°20' E 008°59'4 7.4
2018-Feb-11 09:30N 44°16' E 008°58'3 7.0
2018-Feb-11 09:00N 44°13' E 008°57'3 6.5
2018-Feb-11 08:30N 44°09' E 008°56'3 6.7
2018-Feb-11 08:00N 44°06' E 008°55'3 6.8
2018-Feb-11 07:30N 44°03' E 008°53'3 6.6
2018-Feb-11 07:00N 43°60' E 008°52'3 6.5
2018-Feb-11 06:30N 43°57' E 008°52'3 6.5
2018-Feb-11 06:00N 43°53' E 008°51'5 9.3
2018-Feb-11 05:30N 43°49' E 008°49'510.1
2018-Feb-11 05:00N 43°44' E 008°48'510.0
2018-Feb-11 04:30N 43°39' E 008°46'5 9.9
2018-Feb-11 04:00N 43°34' E 008°45'5 9.8
2018-Feb-11 03:30N 43°29' E 008°43'510.3
2018-Feb-11 03:00N 43°24' E 008°42'  
2018-Feb-06 07:08N 36°46' E 003°04'0 0.0
2018-Feb-06 06:50N 36°46' E 003°04'0 0.0
2018-Feb-06 06:26N 36°46' E 003°04'0 0.0
2018-Feb-06 05:59N 36°46' E 003°04'0 0.0
2018-Feb-06 05:29N 36°46' E 003°04'  
Track history (hours):
 
Tides and Currents Weather Stations Pressure Air Temp Water Temp Dewpoint Dewpoint Depression Visibility Wind Speed Wind Dir Waves Ship Positions

Hh East

Last reported at 2018-Feb-16 05:09 UTC. Time now 2018-Feb-20 02:08 UTC.
Position N 38°00' E 005°25'.

Length 127 m; draft 8.1 m.

Type: Cargo ship. MMSI: 341771000.

Date/timePositionNaut miles runAvg speedWind from/ knotsBaromVisibWave heightAir tempDewpointWater temp
2018-Feb-16 05:09N 38°00' E 005°25'1010.1
2018-Feb-16 04:09N 38°07' E 005°35'1810.0
2018-Feb-16 02:23N 38°16' E 005°54'510.1
2018-Feb-16 01:55N 38°18' E 005°60'326 9.0
2018-Feb-14 13:50N 43°14' E 009°02'3 9.4
2018-Feb-14 13:30N 43°16' E 009°04'5 9.5
2018-Feb-14 13:00N 43°20' E 009°08'33 9.6
2018-Feb-14 09:32N 43°48' E 009°34'010.5
2018-Feb-14 09:30N 43°48' E 009°34'510.6
2018-Feb-14 09:00N 43°52' E 009°39'510.6
2018-Feb-14 08:30N 43°55' E 009°44'510.5
2018-Feb-14 08:00N 43°59' E 009°50'5 9.6
2018-Feb-14 07:30N 44°03' E 009°52'3 5.3
2018-Feb-14 06:58N 44°06' E 009°51'0 0.0
2018-Feb-14 06:28N 44°06' E 009°51'0 0.0
2018-Feb-14 05:58N 44°06' E 009°51'0 0.0
2018-Feb-14 05:28N 44°06' E 009°51'0 0.0
2018-Feb-14 04:58N 44°06' E 009°51'0 0.0
2018-Feb-14 04:28N 44°06' E 009°51'0 0.0
2018-Feb-14 03:58N 44°06' E 009°51'0 0.0
2018-Feb-14 03:28N 44°06' E 009°51'0 0.0
2018-Feb-14 02:58N 44°06' E 009°51'0 0.0
2018-Feb-14 02:28N 44°06' E 009°51'0 0.0
2018-Feb-14 01:58N 44°06' E 009°51'0 0.0
2018-Feb-14 01:28N 44°06' E 009°51'0 0.0
2018-Feb-14 00:58N 44°06' E 009°51'0 0.0
2018-Feb-14 00:28N 44°06' E 009°51'0 0.0
2018-Feb-13 23:58N 44°06' E 009°51'0 0.0
2018-Feb-13 23:28N 44°06' E 009°51'0 0.0
2018-Feb-13 22:58N 44°06' E 009°51'0 0.0
2018-Feb-13 22:28N 44°06' E 009°51'0 0.0
2018-Feb-13 21:58N 44°06' E 009°51'0 0.0
2018-Feb-13 21:28N 44°06' E 009°51'0 0.0
2018-Feb-13 20:58N 44°06' E 009°51'0 0.0
2018-Feb-13 20:28N 44°06' E 009°51'0 0.0
2018-Feb-13 19:55N 44°06' E 009°51'0 0.0
2018-Feb-13 19:28N 44°06' E 009°51'0 0.0
2018-Feb-13 18:58N 44°06' E 009°51'0 0.0
2018-Feb-13 18:28N 44°06' E 009°51'0 0.0
2018-Feb-13 17:58N 44°06' E 009°51'0 0.0
2018-Feb-13 17:28N 44°06' E 009°51'0 0.0
2018-Feb-13 16:58N 44°06' E 009°51'0 0.0
2018-Feb-13 16:28N 44°06' E 009°51'0 0.0
2018-Feb-13 15:58N 44°06' E 009°51'0 0.0
2018-Feb-13 15:28N 44°06' E 009°51'0 0.0
2018-Feb-13 14:58N 44°06' E 009°51'0 0.0
2018-Feb-13 14:28N 44°06' E 009°51'0 0.0
2018-Feb-13 13:58N 44°06' E 009°51'0 0.1
2018-Feb-13 13:30N 44°06' E 009°51'3 5.4
2018-Feb-13 13:01N 44°04' E 009°51'5 9.7
2018-Feb-13 12:30N 44°00' E 009°57'4 8.3
2018-Feb-13 12:00N 43°58' E 009°51'610.0
2018-Feb-13 11:26N 43°57' E 009°44'410.2
2018-Feb-13 11:01N 43°58' E 009°38'510.5
2018-Feb-13 10:30N 44°01' E 009°32'510.1
2018-Feb-13 10:00N 44°04' E 009°26'5 9.9
2018-Feb-13 09:30N 44°07' E 009°21'510.1
2018-Feb-13 09:01N 44°10' E 009°15'5 9.8
2018-Feb-13 08:31N 44°14' E 009°10'5 9.6
2018-Feb-13 08:01N 44°16' E 009°05'5 9.6
2018-Feb-13 07:30N 44°19' E 008°59'5 9.1
2018-Feb-13 07:00N 44°23' E 008°56'3 5.3
2018-Feb-13 06:30N 44°24' E 008°53'0 0.0
2018-Feb-13 05:57N 44°24' E 008°53'0 0.0
2018-Feb-13 05:30N 44°24' E 008°53'0 0.0
2018-Feb-13 05:00N 44°24' E 008°53'0 0.0
2018-Feb-13 04:30N 44°24' E 008°53'0 0.0
2018-Feb-13 04:00N 44°24' E 008°53'0 0.0
2018-Feb-13 03:30N 44°24' E 008°53'0 0.0
2018-Feb-13 03:00N 44°24' E 008°53'0 0.0
2018-Feb-13 02:30N 44°24' E 008°53'0 0.0
2018-Feb-13 02:00N 44°24' E 008°53'0 0.0
2018-Feb-13 01:30N 44°24' E 008°53'0 0.0
2018-Feb-13 01:00N 44°24' E 008°53'0 0.0
2018-Feb-13 00:30N 44°24' E 008°53'0 0.0
2018-Feb-13 00:00N 44°24' E 008°53'0 0.0
2018-Feb-12 23:30N 44°24' E 008°53'0 0.0
2018-Feb-12 23:00N 44°24' E 008°53'0 0.0
2018-Feb-12 22:30N 44°24' E 008°53'0 0.0
2018-Feb-12 22:00N 44°24' E 008°53'0 0.0
2018-Feb-12 21:30N 44°24' E 008°53'0 0.0
2018-Feb-12 21:00N 44°24' E 008°53'0 0.0
2018-Feb-12 20:30N 44°24' E 008°53'0 0.0
2018-Feb-12 20:00N 44°24' E 008°53'0 0.0
2018-Feb-12 19:30N 44°24' E 008°53'0 0.0
2018-Feb-12 19:00N 44°24' E 008°53'0 0.0
2018-Feb-12 18:30N 44°24' E 008°53'0 0.0
2018-Feb-12 18:00N 44°24' E 008°53'0 0.0
2018-Feb-12 17:30N 44°24' E 008°53'0 0.0
2018-Feb-12 17:00N 44°24' E 008°53'0 0.0
2018-Feb-12 16:30N 44°24' E 008°53'0 0.0
2018-Feb-12 15:57N 44°24' E 008°53'0 0.0
2018-Feb-12 15:30N 44°24' E 008°53'0 0.0
2018-Feb-12 15:00N 44°24' E 008°53'0 0.0
2018-Feb-12 14:30N 44°24' E 008°53'0 0.0
2018-Feb-12 14:00N 44°24' E 008°53'0 0.0
2018-Feb-12 13:30N 44°24' E 008°53'0 0.0
2018-Feb-12 13:00N 44°24' E 008°53'0 0.0
2018-Feb-12 12:30N 44°24' E 008°53'0 0.0
2018-Feb-12 12:00N 44°24' E 008°53'0 0.0
2018-Feb-12 11:30N 44°24' E 008°53'0 0.0
2018-Feb-12 11:00N 44°24' E 008°53'0 0.0
2018-Feb-12 10:30N 44°24' E 008°53'0 0.0
2018-Feb-12 10:00N 44°24' E 008°53'0 0.0
2018-Feb-12 09:30N 44°24' E 008°53'0 0.0
2018-Feb-12 09:00N 44°24' E 008°53'0 0.0
2018-Feb-12 08:30N 44°24' E 008°53'0 0.0
2018-Feb-12 08:00N 44°24' E 008°53'0 0.0
2018-Feb-12 07:30N 44°24' E 008°53'0 0.0
2018-Feb-12 07:00N 44°24' E 008°53'0 0.0
2018-Feb-12 06:30N 44°24' E 008°53'0 0.0
2018-Feb-12 06:00N 44°24' E 008°53'0 0.0
2018-Feb-12 05:30N 44°24' E 008°53'0 0.0
2018-Feb-12 05:00N 44°24' E 008°53'0 0.0
2018-Feb-12 04:30N 44°24' E 008°53'0 0.0
2018-Feb-12 04:00N 44°24' E 008°53'0 0.0
2018-Feb-12 03:30N 44°24' E 008°53'0 0.0
2018-Feb-12 03:00N 44°24' E 008°53'0 0.0
2018-Feb-12 02:30N 44°24' E 008°53'0 0.0
2018-Feb-12 02:00N 44°24' E 008°53'0 0.0
2018-Feb-12 01:30N 44°24' E 008°53'0 0.0
2018-Feb-12 01:00N 44°24' E 008°53'0 0.0
2018-Feb-12 00:30N 44°24' E 008°53'0 0.0
2018-Feb-12 00:00N 44°24' E 008°53'0 0.0
2018-Feb-11 23:30N 44°24' E 008°53'0 0.0
2018-Feb-11 23:00N 44°24' E 008°53'0 0.0
2018-Feb-11 22:30N 44°24' E 008°53'0 0.0
2018-Feb-11 22:00N 44°24' E 008°53'0 0.0
2018-Feb-11 21:30N 44°24' E 008°53'0 0.0
2018-Feb-11 21:00N 44°24' E 008°53'0 0.0
2018-Feb-11 20:30N 44°24' E 008°53'0 0.0
2018-Feb-11 20:00N 44°24' E 008°53'0 0.0
2018-Feb-11 19:30N 44°24' E 008°53'0 0.0
2018-Feb-11 19:00N 44°24' E 008°53'0 0.0
2018-Feb-11 18:30N 44°24' E 008°53'0 0.0
2018-Feb-11 18:00N 44°24' E 008°53'0 0.0
2018-Feb-11 17:27N 44°24' E 008°53'0 0.0
2018-Feb-11 17:00N 44°24' E 008°53'0 0.0
2018-Feb-11 16:30N 44°24' E 008°53'0 0.0
2018-Feb-11 16:00N 44°24' E 008°53'0 0.0
2018-Feb-11 15:27N 44°24' E 008°53'0 0.0
2018-Feb-11 15:00N 44°24' E 008°53'0 0.0
2018-Feb-11 14:30N 44°24' E 008°53'0 0.0
2018-Feb-11 14:00N 44°24' E 008°53'0 0.0
2018-Feb-11 13:30N 44°24' E 008°53'0 0.0
2018-Feb-11 13:00N 44°24' E 008°53'0 0.0
2018-Feb-11 12:30N 44°24' E 008°53'0 0.0
2018-Feb-11 12:00N 44°24' E 008°53'0 0.0
2018-Feb-11 11:27N 44°24' E 008°53'0 1.1
2018-Feb-11 11:00N 44°24' E 008°53'3 6.1
2018-Feb-11 10:30N 44°23' E 008°57'3 6.9
2018-Feb-11 10:00N 44°20' E 008°59'4 7.4
2018-Feb-11 09:30N 44°16' E 008°58'3 7.0
2018-Feb-11 09:00N 44°13' E 008°57'3 6.5
2018-Feb-11 08:30N 44°09' E 008°56'3 6.7
2018-Feb-11 08:00N 44°06' E 008°55'3 6.8
2018-Feb-11 07:30N 44°03' E 008°53'3 6.6
2018-Feb-11 07:00N 43°60' E 008°52'3 6.5
2018-Feb-11 06:30N 43°57' E 008°52'3 6.5
2018-Feb-11 06:00N 43°53' E 008°51'5 9.3
2018-Feb-11 05:30N 43°49' E 008°49'510.1
2018-Feb-11 05:00N 43°44' E 008°48'510.0
2018-Feb-11 04:30N 43°39' E 008°46'5 9.9
2018-Feb-11 04:00N 43°34' E 008°45'5 9.8
2018-Feb-11 03:30N 43°29' E 008°43'510.3
2018-Feb-11 03:00N 43°24' E 008°42'  
2018-Feb-06 07:08N 36°46' E 003°04'0 0.0
2018-Feb-06 06:50N 36°46' E 003°04'0 0.0
2018-Feb-06 06:26N 36°46' E 003°04'0 0.0
2018-Feb-06 05:59N 36°46' E 003°04'0 0.0
2018-Feb-06 05:29N 36°46' E 003°04'  

Dump ship's entire track history